< < Back
Terminal Aerodrome Forecast


Current Version              Previous Versions:   1  2  3  4  5  6  7  8  9  

Terminal Aerodrome Forecast

097
FTUS42 KJAX 251751
TAFSSI
TAF
KSSI 251751Z 2518/2618 05014G22KT P6SM VCSH SCT030 BKN090
     FM260100 07009KT P6SM SCT025 SCT090
     FM261600 07012G18KT P6SM SCT030 SCT250=



Latest METAR

683
SAUS70 KWBC 260600 RRM
MTRSSI
METAR KSSI 260553Z AUTO 08006KT 10SM CLR 27/22 A3007 RMK AO2 SLP184
T02720217 10283 20272 55000


USA.gov is the U.S. government's official web portal to all federal, state and local government web resources and services.